Time;durP1;ratioP1;P1;durP2;ratioP2;P2;SDS_P1;SDS_P2;PMS_P1;PMS_P2;Temp;Humidity;BMP_temperature;BMP_pressure;BME280_temperature;BME280_humidity;BME280_pressure;Samples;Min_cycle;Max_cycle;Signal;HPM_P1;HPM_P2
2021/12/02 00:01:10;;;;;;;17.30;7.73;;;;;;;3.34;100.00;94096.25;5012037;28;20202;-61
2021/12/02 00:03:36;;;;;;;12.37;7.53;;;;;;;2.94;100.00;94084.69;5012005;28;20183;-60
2021/12/02 00:06:07;;;;;;;15.67;8.53;;;;;;;3.13;100.00;94102.66;5011746;28;20690;-62
2021/12/02 00:08:32;;;;;;;11.83;8.00;;;;;;;3.27;100.00;94102.56;5011918;28;20177;-61
2021/12/02 00:10:58;;;;;;;16.37;8.80;;;;;;;3.11;100.00;94098.69;5012069;28;20215;-60
2021/12/02 00:13:26;;;;;;;20.67;10.67;;;;;;;2.95;100.00;94103.88;5011962;28;20274;-60
2021/12/02 00:21:02;;;;;;;20.23;11.03;;;;;;;3.07;100.00;94095.53;5012207;28;20668;-61
2021/12/02 00:21:12;;;;;;;20.67;9.97;;;;;;;3.27;100.00;94115.13;5011491;28;20273;-60
2021/12/02 00:23:48;;;;;;;16.80;9.50;;;;;;;3.41;100.00;94119.28;5011686;28;20183;-61
2021/12/02 00:26:16;;;;;;;12.03;7.90;;;;;;;3.33;100.00;94132.31;5011826;28;20226;-59
2021/12/02 00:28:42;;;;;;;12.77;8.30;;;;;;;3.17;100.00;94123.38;5011964;28;20196;-61
2021/12/02 00:31:18;;;;;;;15.00;8.77;;;;;;;2.83;100.00;94098.84;5011608;28;20203;-61
2021/12/02 00:33:53;;;;;;;14.07;7.70;;;;;;;3.04;100.00;94108.31;5011602;28;20182;-63
2021/12/02 00:36:23;;;;;;;14.73;8.57;;;;;;;2.83;100.00;94098.84;5010719;28;20228;-60
2021/12/02 00:38:51;;;;;;;14.43;8.70;;;;;;;2.53;100.00;94109.09;5010558;28;20183;-61
2021/12/02 00:41:21;;;;;;;15.70;8.47;;;;;;;2.54;100.00;94115.72;5011498;28;20283;-60
2021/12/02 00:43:49;;;;;;;15.60;7.80;;;;;;;2.64;100.00;94124.28;5011747;28;20166;-60
2021/12/02 00:46:18;;;;;;;13.97;8.00;;;;;;;2.84;100.00;94125.53;5011677;28;20199;-60
2021/12/02 00:48:45;;;;;;;14.80;8.07;;;;;;;2.72;100.00;94137.16;5014908;28;20171;-61
2021/12/02 00:51:11;;;;;;;12.47;7.90;;;;;;;2.80;100.00;94114.91;5015541;28;20194;-60
2021/12/02 00:53:43;;;;;;;20.40;8.73;;;;;;;2.66;100.00;94099.09;5015428;28;20739;-59
2021/12/02 00:56:11;;;;;;;14.90;9.03;;;;;;;2.66;100.00;94097.41;5015122;28;20688;-60
2021/12/02 00:58:37;;;;;;;17.50;10.60;;;;;;;3.03;100.00;94099.16;5015087;28;20258;-63
2021/12/02 01:01:03;;;;;;;18.43;9.43;;;;;;;3.10;100.00;94117.94;5015290;28;20281;-60
2021/12/02 01:03:33;;;;;;;15.40;8.97;;;;;;;2.96;100.00;94102.16;5015504;28;20193;-60
2021/12/02 01:05:59;;;;;;;13.20;8.00;;;;;;;2.88;100.00;94106.88;5015134;28;20159;-60
2021/12/02 01:08:26;;;;;;;12.37;8.57;;;;;;;2.95;100.00;94111.38;5014980;28;20679;-59
2021/12/02 01:10:52;;;;;;;15.47;8.27;;;;;;;2.95;100.00;94115.63;5014851;28;20186;-60
2021/12/02 01:13:17;;;;;;;13.60;7.77;;;;;;;2.88;100.00;94112.69;5015162;28;20183;-61
2021/12/02 01:15:43;;;;;;;14.03;8.10;;;;;;;2.77;100.00;94115.06;5014833;28;20202;-62
2021/12/02 01:18:08;;;;;;;13.23;7.57;;;;;;;2.79;100.00;94117.50;5014719;28;20698;-60
2021/12/02 01:20:35;;;;;;;14.00;8.13;;;;;;;2.94;100.00;94117.31;5014789;28;20285;-60
2021/12/02 01:23:01;;;;;;;13.40;8.90;;;;;;;3.01;100.00;94128.56;5015275;28;20199;-60
2021/12/02 01:25:32;;;;;;;16.07;9.40;;;;;;;2.97;100.00;94118.84;5014747;28;20679;-60
2021/12/02 01:27:58;;;;;;;15.53;9.30;;;;;;;3.26;100.00;94123.59;5015104;28;20213;-59
2021/12/02 01:30:29;;;;;;;16.37;9.27;;;;;;;2.98;100.00;94116.22;5015010;28;20182;-62
2021/12/02 01:33:04;;;;;;;16.77;9.03;;;;;;;2.92;100.00;94119.13;5013760;28;20746;-60
2021/12/02 01:35:31;;;;;;;14.07;9.07;;;;;;;2.92;100.00;94114.09;5014548;28;20742;-61
2021/12/02 01:37:57;;;;;;;15.60;9.13;;;;;;;2.95;100.00;94123.94;5014896;28;20266;-60
2021/12/02 01:40:23;;;;;;;18.17;8.40;;;;;;;2.79;100.00;94115.78;5014830;28;20186;-61
2021/12/02 01:42:53;;;;;;;13.40;7.83;;;;;;;3.03;100.00;94121.75;5014836;28;20282;-60
2021/12/02 01:45:27;;;;;;;13.73;8.80;;;;;;;2.93;100.00;94124.97;5014650;28;20205;-59
2021/12/02 01:47:55;;;;;;;14.80;8.47;;;;;;;3.05;100.00;94127.47;5013266;28;20557;-62
2021/12/02 01:50:23;;;;;;;12.63;7.63;;;;;;;3.12;100.00;94130.41;5013064;28;20179;-61
2021/12/02 01:53:00;;;;;;;14.70;7.83;;;;;;;3.00;100.00;94109.41;5014697;28;20221;-64
2021/12/02 01:55:28;;;;;;;16.53;8.27;;;;;;;3.09;100.00;94108.78;5014220;28;20209;-60
2021/12/02 01:58:05;;;;;;;13.90;7.90;;;;;;;2.80;100.00;94104.03;5014711;28;20246;-60
2021/12/02 02:00:33;;;;;;;13.87;7.83;;;;;;;2.56;100.00;94096.38;5013370;28;20227;-60
2021/12/02 02:03:04;;;;;;;13.30;8.17;;;;;;;2.39;100.00;94087.38;5014451;28;20680;-60
2021/12/02 02:05:31;;;;;;;12.87;7.37;;;;;;;2.38;100.00;94084.97;5014060;28;20167;-61
2021/12/02 02:08:17;;;;;;;17.03;8.63;;;;;;;2.41;100.00;94092.31;5012529;28;20708;-58
2021/12/02 02:10:43;;;;;;;24.70;7.80;;;;;;;2.31;100.00;94078.72;5014172;28;20217;-60
2021/12/02 02:13:10;;;;;;;13.67;7.03;;;;;;;2.45;100.00;94074.47;5013917;28;20256;-59
2021/12/02 02:15:44;;;;;;;12.47;7.53;;;;;;;2.58;100.00;94084.53;5012417;28;20218;-59
2021/12/02 02:18:18;;;;;;;14.57;7.10;;;;;;;2.44;100.00;94082.88;5012576;28;20222;-60
2021/12/02 02:23:18;;;;;;;11.47;7.60;;;;;;;2.37;100.00;94055.78;5013886;28;20178;-60
2021/12/02 02:25:45;;;;;;;11.83;7.13;;;;;;;2.34;100.00;94088.56;5013332;28;20179;-61
2021/12/02 02:28:12;;;;;;;15.23;7.43;;;;;;;2.26;100.00;94068.97;5013587;28;20321;-59
2021/12/02 02:30:38;;;;;;;14.47;7.80;;;;;;;2.36;100.00;94070.00;5013659;28;20178;-60
2021/12/02 02:33:04;;;;;;;12.47;7.30;;;;;;;1.82;100.00;94078.41;5013886;28;20668;-61
2021/12/02 02:35:29;;;;;;;13.40;7.20;;;;;;;2.06;100.00;94078.66;5013392;28;20207;-60
2021/12/02 02:37:55;;;;;;;12.13;6.83;;;;;;;2.19;100.00;94079.47;5013277;28;20210;-61
2021/12/02 02:40:20;;;;;;;13.47;7.97;;;;;;;2.31;100.00;94076.22;5013220;28;20648;-60
2021/12/02 02:42:55;;;;;;;15.60;8.07;;;;;;;1.83;100.00;94066.69;5013707;28;20237;-59
2021/12/02 02:45:21;;;;;;;11.73;6.83;;;;;;;1.89;100.00;94077.16;5013410;28;20170;-61
2021/12/02 02:47:46;;;;;;;12.77;7.57;;;;;;;1.92;100.00;94079.47;5013072;28;20210;-60
2021/12/02 02:50:14;;;;;;;14.33;7.20;;;;;;;2.04;100.00;94080.44;5013206;28;20186;-60
2021/12/02 02:52:40;;;;;;;14.00;6.73;;;;;;;2.06;100.00;94076.13;5013472;28;20203;-60
2021/12/02 02:55:06;;;;;;;10.80;5.87;;;;;;;1.97;100.00;94077.50;5013026;28;20309;-62
2021/12/02 02:57:40;;;;;;;11.67;7.03;;;;;;;2.28;100.00;94097.25;5013289;28;20305;-62
2021/12/02 03:00:11;;;;;;;9.57;6.23;;;;;;;2.12;100.00;94076.53;5013054;28;20169;-62
2021/12/02 03:02:49;;;;;;;11.07;6.80;;;;;;;2.17;100.00;94068.75;5011607;28;20214;-59
2021/12/02 03:08:37;;;;;;;10.90;6.60;;;;;;;2.41;100.00;94072.25;5013168;28;20657;-62
2021/12/02 03:18:21;;;;;;;8.87;6.40;;;;;;;2.52;100.00;94070.66;5012766;28;20221;-59
2021/12/02 03:20:46;;;;;;;10.83;6.90;;;;;;;2.72;100.00;94081.16;5011197;28;20219;-60
2021/12/02 03:23:12;;;;;;;12.37;6.67;;;;;;;2.70;100.00;94066.19;5011765;28;20550;-59
2021/12/02 03:25:37;;;;;;;12.87;6.80;;;;;;;2.62;100.00;94065.88;5012859;28;20532;-60
2021/12/02 03:28:03;;;;;;;11.33;7.30;;;;;;;2.54;100.00;94053.81;5013066;28;20278;-60
2021/12/02 03:30:29;;;;;;;9.70;6.60;;;;;;;2.55;100.00;94062.13;5010988;28;20237;-60
2021/12/02 03:32:55;;;;;;;9.73;5.80;;;;;;;2.63;100.00;94064.97;5012817;28;20214;-62
2021/12/02 03:35:20;;;;;;;15.23;7.00;;;;;;;2.81;100.00;94071.31;5011011;28;20208;-61
2021/12/02 03:37:46;;;;;;;11.70;6.93;;;;;;;2.79;100.00;94063.09;5012742;28;20207;-59
2021/12/02 03:40:12;;;;;;;10.03;5.97;;;;;;;2.88;100.00;94060.00;5012825;28;20265;-60
2021/12/02 03:42:47;;;;;;;10.60;6.43;;;;;;;3.04;100.00;94063.13;5012309;28;20217;-60
2021/12/02 03:45:13;;;;;;;11.87;6.30;;;;;;;3.00;100.00;94071.75;5012751;28;20206;-64
2021/12/02 03:47:39;;;;;;;14.30;6.17;;;;;;;2.85;100.00;94051.88;5011449;28;20203;-61
2021/12/02 03:50:06;;;;;;;15.33;7.07;;;;;;;2.61;100.00;94039.19;5011497;28;20619;-64
2021/12/02 03:52:31;;;;;;;14.07;6.63;;;;;;;2.54;100.00;94070.59;5011015;28;20214;-60
2021/12/02 03:54:56;;;;;;;9.53;5.97;;;;;;;2.04;100.00;94036.09;5012694;28;20596;-64
2021/12/02 03:57:23;;;;;;;11.00;6.47;;;;;;;2.33;100.00;94055.16;5012712;28;20214;-65
2021/12/02 03:59:48;;;;;;;17.67;6.83;;;;;;;2.17;100.00;94049.50;5010998;28;20260;-62
2021/12/02 04:02:14;;;;;;;13.97;7.27;;;;;;;2.18;100.00;94031.03;5012178;28;20207;-62
2021/12/02 04:04:39;;;;;;;11.50;7.33;;;;;;;2.26;100.00;94040.63;5010749;28;20215;-63
2021/12/02 04:07:05;;;;;;;14.07;6.40;;;;;;;2.35;100.00;94042.53;5012163;28;20218;-61
2021/12/02 04:09:37;;;;;;;10.57;7.20;;;;;;;1.81;100.00;94046.75;5010549;28;20186;-60
2021/12/02 04:12:09;;;;;;;12.17;7.20;;;;;;;1.55;100.00;94040.00;5011916;28;20214;-62
2021/12/02 04:17:29;;;;;;;10.63;6.73;;;;;;;2.23;100.00;94023.25;4990482;28;20223;-62
2021/12/02 04:19:55;;;;;;;10.70;6.63;;;;;;;2.02;100.00;94027.09;5010689;28;20186;-62
2021/12/02 04:22:20;;;;;;;10.30;6.67;;;;;;;2.26;100.00;94025.56;5010824;28;20707;-60
2021/12/02 04:24:45;;;;;;;13.20;7.07;;;;;;;2.23;100.00;94044.09;5011849;28;20722;-58
2021/12/02 04:27:11;;;;;;;11.00;7.53;;;;;;;1.98;100.00;94053.25;5011779;28;20203;-60
2021/12/02 04:29:36;;;;;;;14.90;8.07;;;;;;;1.79;100.00;94038.53;5011715;28;20673;-60
2021/12/02 04:32:04;;;;;;;13.50;7.10;;;;;;;1.76;100.00;94035.41;5011730;28;20203;-61
2021/12/02 04:34:29;;;;;;;15.53;7.83;;;;;;;1.75;100.00;94026.28;5010308;28;20189;-63
2021/12/02 04:36:55;;;;;;;11.13;6.83;;;;;;;1.87;100.00;94031.34;5011665;28;20566;-60
2021/12/02 04:39:20;;;;;;;12.30;7.10;;;;;;;1.56;100.00;94017.38;5011610;28;20266;-62
2021/12/02 04:41:46;;;;;;;13.73;7.43;;;;;;;1.91;100.00;94025.25;5011751;28;20226;-61
2021/12/02 04:44:13;;;;;;;14.27;7.17;;;;;;;1.71;100.00;94030.69;5010133;28;20194;-58
2021/12/02 04:46:39;;;;;;;12.10;8.10;;;;;;;1.72;100.00;94023.97;5011422;28;20249;-62
2021/12/02 04:49:04;;;;;;;12.13;8.43;;;;;;;1.93;100.00;94030.16;5011780;28;20679;-63
2021/12/02 04:51:30;;;;;;;14.33;8.70;;;;;;;1.90;100.00;94031.16;5011587;28;20222;-61
2021/12/02 04:53:55;;;;;;;12.93;7.80;;;;;;;1.78;100.00;94036.91;5011387;28;20595;-60
2021/12/02 04:56:21;;;;;;;12.70;7.50;;;;;;;1.96;100.00;94029.97;5010983;28;20306;-63
2021/12/02 04:58:46;;;;;;;15.63;8.20;;;;;;;2.08;100.00;94031.72;5010079;28;20653;-61
2021/12/02 05:01:12;;;;;;;15.47;7.77;;;;;;;2.02;100.00;94014.56;5011212;28;20206;-65
2021/12/02 05:03:38;;;;;;;12.20;6.93;;;;;;;2.05;100.00;94011.84;5009998;28;20652;-61
2021/12/02 05:06:03;;;;;;;15.53;7.33;;;;;;;2.14;100.00;94017.09;5011143;28;20182;-58
2021/12/02 05:08:28;;;;;;;10.33;6.83;;;;;;;2.37;100.00;94026.50;5011155;28;20177;-61
2021/12/02 05:10:54;;;;;;;11.13;7.07;;;;;;;2.48;100.00;94008.25;5010775;28;20657;-61
2021/12/02 05:13:19;;;;;;;16.80;8.07;;;;;;;2.46;100.00;94015.88;5011197;28;20646;-59
2021/12/02 05:15:45;;;;;;;12.53;7.80;;;;;;;2.49;100.00;94014.88;5011004;28;20203;-61
2021/12/02 05:18:10;;;;;;;14.67;6.90;;;;;;;2.67;100.00;93998.66;5011014;28;20185;-63
2021/12/02 05:20:36;;;;;;;14.40;7.93;;;;;;;2.74;100.00;94009.91;5011104;28;20312;-62
2021/12/02 05:23:02;;;;;;;15.90;8.50;;;;;;;2.71;100.00;94024.34;5010968;28;20199;-59
2021/12/02 05:25:27;;;;;;;12.13;8.70;;;;;;;2.64;100.00;94015.59;5011372;28;20193;-60
2021/12/02 05:27:53;;;;;;;15.03;8.00;;;;;;;2.67;100.00;94026.25;5009901;28;20206;-59
2021/12/02 05:30:19;;;;;;;14.13;9.20;;;;;;;2.68;100.00;94019.53;5010969;28;20177;-63
2021/12/02 05:32:45;;;;;;;15.87;8.00;;;;;;;2.74;100.00;94029.97;5011359;28;20209;-60
2021/12/02 05:35:10;;;;;;;11.30;7.37;;;;;;;2.77;100.00;94027.25;5012826;28;20206;-60
2021/12/02 05:37:36;;;;;;;13.40;7.53;;;;;;;2.67;100.00;94018.72;5014865;28;20715;-60
2021/12/02 05:40:03;;;;;;;14.50;7.67;;;;;;;2.47;100.00;94007.47;5014326;28;20534;-62
2021/12/02 05:42:28;;;;;;;14.70;7.33;;;;;;;2.52;100.00;94014.69;5014632;28;20203;-60
2021/12/02 05:44:54;;;;;;;11.60;7.53;;;;;;;2.53;100.00;94001.22;5014201;28;20178;-62
2021/12/02 05:47:20;;;;;;;14.30;7.67;;;;;;;2.52;100.00;93995.41;5014489;28;20195;-61
2021/12/02 05:49:45;;;;;;;12.40;7.67;;;;;;;2.42;100.00;93993.63;5014155;28;20187;-59
2021/12/02 05:52:11;;;;;;;11.83;8.07;;;;;;;2.41;100.00;93997.00;5014793;28;20203;-62
2021/12/02 05:54:37;;;;;;;17.17;9.17;;;;;;;1.73;100.00;93990.50;5012864;28;20565;-63
2021/12/02 05:57:03;;;;;;;23.80;9.80;;;;;;;1.79;100.00;93997.63;5013975;28;20299;-60
2021/12/02 05:59:28;;;;;;;22.93;11.23;;;;;;;1.46;100.00;94011.31;5012733;28;20186;-59
2021/12/02 06:01:53;;;;;;;19.03;10.30;;;;;;;0.92;100.00;94003.75;5014335;28;20210;-60
2021/12/02 06:04:19;;;;;;;17.63;10.00;;;;;;;1.57;100.00;94006.47;5014184;28;20190;-63
2021/12/02 06:06:44;;;;;;;21.53;10.97;;;;;;;1.06;100.00;94009.56;5014108;28;20214;-60
2021/12/02 06:09:10;;;;;;;19.37;11.50;;;;;;;0.67;100.00;94002.66;5012227;28;20183;-61
2021/12/02 06:11:35;;;;;;;22.33;11.30;;;;;;;1.28;100.00;94004.09;5013796;28;20211;-60
2021/12/02 06:14:03;;;;;;;17.80;10.43;;;;;;;1.64;100.00;94005.19;5013812;28;20187;-60
2021/12/02 06:16:28;;;;;;;17.43;10.07;;;;;;;1.75;100.00;94013.75;5012229;28;20246;-61
2021/12/02 06:18:54;;;;;;;20.83;11.17;;;;;;;3.23;100.00;93999.94;5013378;28;20258;-61
2021/12/02 06:21:19;;;;;;;18.50;10.00;;;;;;;3.28;100.00;94016.31;5013517;28;20253;-60
2021/12/02 06:23:45;;;;;;;15.50;9.80;;;;;;;3.28;100.00;94023.84;5013345;28;20182;-60
2021/12/02 06:26:10;;;;;;;20.70;10.73;;;;;;;3.22;100.00;94025.94;5013368;28;20202;-60
2021/12/02 06:28:36;;;;;;;19.10;10.53;;;;;;;3.23;100.00;94048.44;5013677;28;20187;-61
2021/12/02 06:31:02;;;;;;;17.97;10.50;;;;;;;3.16;100.00;94044.75;5013292;28;20237;-60
2021/12/02 06:33:29;;;;;;;18.73;11.50;;;;;;;3.10;100.00;94042.63;5013251;28;20213;-61
2021/12/02 06:35:55;;;;;;;24.37;11.70;;;;;;;3.37;100.00;94048.31;5013081;28;20273;-63
2021/12/02 06:38:20;;;;;;;24.60;11.30;;;;;;;3.29;100.00;94049.75;5013466;28;20214;-61
2021/12/02 06:40:46;;;;;;;16.07;10.40;;;;;;;3.36;100.00;94058.47;5013068;28;20197;-59
2021/12/02 06:43:14;;;;;;;18.47;10.23;;;;;;;3.42;100.00;94056.38;5013417;28;20182;-62
2021/12/02 06:45:40;;;;;;;16.50;10.23;;;;;;;3.50;100.00;94070.13;5011565;28;20186;-63
2021/12/02 06:48:05;;;;;;;18.53;10.90;;;;;;;3.58;100.00;94082.97;5013466;28;20306;-60
2021/12/02 06:50:33;;;;;;;20.97;12.67;;;;;;;3.23;100.00;94040.91;5013124;28;20179;-62
2021/12/02 06:52:59;;;;;;;28.20;14.57;;;;;;;3.32;100.00;94064.63;5013772;28;20615;-61
2021/12/02 06:55:25;;;;;;;28.73;14.57;;;;;;;3.22;100.00;94056.91;5013190;28;20632;-61
2021/12/02 06:57:50;;;;;;;25.73;14.53;;;;;;;3.11;100.00;94039.22;5011831;28;20696;-61
2021/12/02 07:00:19;;;;;;;24.60;14.80;;;;;;;3.25;100.00;94063.44;5013009;28;20178;-62
2021/12/02 07:02:45;;;;;;;27.40;14.93;;;;;;;3.19;100.00;94042.00;5012747;28;20210;-60
2021/12/02 07:05:13;;;;;;;24.93;14.93;;;;;;;3.30;100.00;94046.34;5011838;28;20653;-60
2021/12/02 07:07:39;;;;;;;26.97;16.00;;;;;;;3.24;100.00;94042.53;5012939;28;20199;-60
2021/12/02 07:10:11;;;;;;;28.17;16.77;;;;;;;3.32;100.00;94037.81;5011359;28;20228;-62
2021/12/02 07:12:39;;;;;;;31.43;16.40;;;;;;;2.54;100.00;94010.38;5013479;28;20207;-61
2021/12/02 07:15:18;;;;;;;23.07;15.20;;;;;;;2.38;100.00;94024.81;5011093;28;20211;-61
2021/12/02 07:17:45;;;;;;;26.87;15.17;;;;;;;2.89;100.00;94030.69;5012791;28;20212;-59
2021/12/02 07:20:12;;;;;;;27.57;15.27;;;;;;;3.06;100.00;94040.41;5012411;28;20318;-60
2021/12/02 07:22:38;;;;;;;29.00;16.30;;;;;;;3.26;100.00;94058.28;5012793;28;20684;-62
2021/12/02 07:25:05;;;;;;;29.37;17.13;;;;;;;3.25;100.00;94061.69;5012644;28;20213;-61
2021/12/02 07:27:30;;;;;;;32.33;19.67;;;;;;;3.13;100.00;94039.91;5012704;28;20300;-60
2021/12/02 07:29:56;;;;;;;31.03;17.30;;;;;;;3.04;100.00;94025.47;5012674;28;20229;-63
2021/12/02 07:32:26;;;;;;;34.43;18.03;;;;;;;3.42;100.00;94043.81;5010834;28;20229;-60
2021/12/02 07:34:53;;;;;;;31.73;18.57;;;;;;;3.60;100.00;94045.97;5012253;28;20194;-61
2021/12/02 07:37:19;;;;;;;29.77;18.30;;;;;;;3.64;100.00;94037.31;5010920;28;20286;-63
2021/12/02 07:39:45;;;;;;;36.57;21.87;;;;;;;3.73;100.00;94044.25;5012424;28;20262;-63
2021/12/02 07:42:11;;;;;;;35.07;21.97;;;;;;;3.95;100.00;94051.94;5012336;28;20207;-63
2021/12/02 07:44:37;;;;;;;35.07;22.53;;;;;;;4.12;100.00;94062.44;5011950;28;20182;-60
2021/12/02 07:47:05;;;;;;;39.83;25.00;;;;;;;4.29;100.00;94051.19;5012158;28;20254;-60
2021/12/02 07:49:31;;;;;;;40.73;25.23;;;;;;;4.68;100.00;94067.72;5012066;28;20245;-60
2021/12/02 07:52:01;;;;;;;40.93;25.17;;;;;;;4.84;100.00;94089.16;5011681;28;20205;-60
2021/12/02 07:54:27;;;;;;;43.77;26.47;;;;;;;4.91;100.00;94075.22;5011737;28;20209;-61
2021/12/02 07:56:53;;;;;;;43.33;24.80;;;;;;;5.07;100.00;94068.16;5011488;28;20210;-61
2021/12/02 07:59:20;;;;;;;30.40;18.57;;;;;;;5.21;100.00;94072.22;5011962;28;20684;-64
2021/12/02 08:01:46;;;;;;;29.70;17.93;;;;;;;5.48;100.00;94100.41;5019232;22;20218;-62
2021/12/02 08:04:12;;;;;;;28.57;16.07;;;;;;;5.72;100.00;94110.38;5011790;28;20179;-62
2021/12/02 08:06:38;;;;;;;22.97;14.37;;;;;;;5.94;100.00;94130.56;5010607;28;20269;-60
2021/12/02 08:09:05;;;;;;;23.63;14.57;;;;;;;6.16;99.60;94143.16;5010597;28;20223;-61
2021/12/02 08:11:32;;;;;;;22.77;13.50;;;;;;;6.37;99.30;94128.13;5011850;28;20217;-63
2021/12/02 08:13:57;;;;;;;25.00;15.33;;;;;;;6.71;99.43;94122.06;5011740;28;20181;-62
2021/12/02 08:16:23;;;;;;;24.00;13.83;;;;;;;7.23;96.72;94169.31;5011641;28;20289;-62
2021/12/02 08:18:48;;;;;;;17.90;12.17;;;;;;;7.49;92.37;94193.31;5011674;28;20209;-60
2021/12/02 08:21:14;;;;;;;24.17;12.57;;;;;;;7.83;92.39;94176.19;5011567;28;20213;-63
2021/12/02 08:23:39;;;;;;;21.13;11.27;;;;;;;8.14;88.93;94213.28;5011831;28;20200;-62
2021/12/02 08:26:05;;;;;;;10.43;6.70;;;;;;;8.50;86.82;94244.91;5011600;28;20742;-63
2021/12/02 08:28:30;;;;;;;14.67;7.70;;;;;;;8.78;85.00;94252.59;5011679;28;20181;-61
2021/12/02 08:30:57;;;;;;;13.37;7.87;;;;;;;9.07;83.33;94253.47;5011596;28;20197;-62
2021/12/02 08:33:23;;;;;;;9.17;5.93;;;;;;;9.19;75.78;94262.56;5011811;28;20230;-61
2021/12/02 08:35:49;;;;;;;11.07;6.90;;;;;;;9.36;72.01;94260.31;5010050;28;20305;-63
2021/12/02 08:38:17;;;;;;;11.43;6.77;;;;;;;9.56;73.11;94226.41;5010186;28;20282;-62
2021/12/02 08:40:44;;;;;;;12.30;7.87;;;;;;;9.90;69.13;94276.59;5010157;28;20179;-62
2021/12/02 08:43:13;;;;;;;14.73;6.80;;;;;;;9.91;66.72;94301.06;5011493;28;20681;-61
2021/12/02 08:45:41;;;;;;;13.03;7.23;;;;;;;9.91;67.93;94255.38;5011725;28;20179;-60
2021/12/02 08:48:07;;;;;;;13.27;6.37;;;;;;;9.94;66.78;94275.41;5011385;28;20368;-60
2021/12/02 08:50:35;;;;;;;7.67;5.47;;;;;;;10.10;66.82;94257.91;5011357;28;20190;-60
2021/12/02 08:53:01;;;;;;;6.70;5.13;;;;;;;10.27;66.60;94253.84;5011840;28;20211;-61
2021/12/02 08:55:29;;;;;;;8.80;5.93;;;;;;;10.26;64.56;94290.34;5011283;28;20272;-63
2021/12/02 08:57:55;;;;;;;10.63;5.70;;;;;;;10.00;64.10;94282.47;5010185;28;20215;-62
2021/12/02 09:00:27;;;;;;;5.97;4.50;;;;;;;10.22;65.42;94242.50;5011330;28;20194;-64
2021/12/02 09:02:53;;;;;;;11.53;5.07;;;;;;;10.51;63.67;94266.06;5011744;28;20257;-63
2021/12/02 09:05:19;;;;;;;11.27;5.60;;;;;;;10.67;63.29;94274.72;5011379;28;20213;-61
2021/12/02 09:07:45;;;;;;;8.70;5.70;;;;;;;10.79;61.83;94291.41;5011636;28;20302;-61
2021/12/02 09:10:10;;;;;;;10.73;6.43;;;;;;;10.50;62.22;94277.19;5013750;28;20204;-61
2021/12/02 09:12:36;;;;;;;12.57;6.33;;;;;;;10.53;63.13;94241.31;5013753;28;20215;-62
2021/12/02 09:15:05;;;;;;;12.27;6.50;;;;;;;10.87;62.35;94253.34;5015256;28;20217;-63
2021/12/02 09:17:30;;;;;;;11.80;7.43;;;;;;;10.97;63.07;94202.44;5015352;28;20209;-61
2021/12/02 09:19:56;;;;;;;8.20;5.80;;;;;;;11.08;62.61;94226.88;5014928;28;20183;-64
2021/12/02 09:22:21;;;;;;;9.10;5.63;;;;;;;11.27;61.01;94255.53;5015209;28;20230;-61
2021/12/02 09:24:47;;;;;;;10.17;5.10;;;;;;;11.69;59.71;94279.53;5015159;28;20572;-64
2021/12/02 09:27:13;;;;;;;6.57;4.30;;;;;;;11.74;56.77;94323.16;5014839;28;20199;-61
2021/12/02 09:29:38;;;;;;;7.17;4.50;;;;;;;11.45;59.69;94232.66;5014738;28;20533;-63
2021/12/02 09:32:04;;;;;;;6.97;5.33;;;;;;;11.46;59.88;94219.78;5014870;28;20199;-63
2021/12/02 09:34:30;;;;;;;8.57;5.63;;;;;;;12.00;59.11;94251.91;5013045;28;20682;-63
2021/12/02 09:36:56;;;;;;;11.30;6.10;;;;;;;12.22;58.32;94276.13;5013079;28;20717;-64
2021/12/02 09:39:21;;;;;;;11.83;7.63;;;;;;;12.24;57.86;94279.31;5014567;28;20554;-62
2021/12/02 09:41:47;;;;;;;12.40;6.80;;;;;;;12.38;56.63;94306.81;5014821;28;20205;-60
2021/12/02 09:44:15;;;;;;;11.57;5.23;;;;;;;12.64;55.30;94323.69;5014535;28;20171;-60
2021/12/02 09:46:42;;;;;;;9.03;5.37;;;;;;;12.79;52.48;94357.13;5014369;28;20220;-62
2021/12/02 09:49:10;;;;;;;7.37;5.40;;;;;;;12.68;51.36;94343.81;5014637;28;20175;-62
2021/12/02 09:54:29;;;;;;;6.30;5.07;;;;;;;12.02;54.77;94229.63;5014517;28;20190;-60
2021/12/02 09:56:57;;;;;;;9.37;5.43;;;;;;;12.54;55.85;94220.25;5014559;28;20207;-61
2021/12/02 10:00:05;;;;;;;9.17;5.00;;;;;;;12.70;52.93;94281.53;5014084;28;20175;-60
2021/12/02 10:02:16;;;;;;;7.83;5.00;;;;;;;12.83;53.08;94266.56;5008712;28;20703;-63
2021/12/02 10:04:48;;;;;;;10.37;5.90;;;;;;;12.65;53.14;94264.13;5013944;28;20183;-62
2021/12/02 10:10:16;;;;;;;7.47;4.07;;;;;;;13.42;50.44;94309.91;5014137;28;20166;-63
2021/12/02 10:13:32;;;;;;;7.80;5.00;;;;;;;13.76;49.92;94297.03;5014422;28;20214;-61
2021/12/02 10:16:08;;;;;;;9.63;4.93;;;;;;;14.00;49.97;94283.47;5013500;28;20219;-63
2021/12/02 10:18:56;;;;;;;8.83;5.03;;;;;;;13.83;49.75;94302.31;5013836;28;20182;-61
2021/12/02 10:21:30;;;;;;;8.23;5.13;;;;;;;13.94;50.25;94273.88;5013518;28;20210;-61
2021/12/02 10:24:01;;;;;;;8.00;5.27;;;;;;;14.15;50.65;94252.03;5012496;28;20177;-64
2021/12/02 10:26:26;;;;;;;9.17;5.20;;;;;;;14.35;50.12;94259.38;5012471;28;20207;-62
2021/12/02 10:28:52;;;;;;;8.43;5.53;;;;;;;14.54;49.54;94275.19;5013736;28;20671;-64
2021/12/02 10:31:21;;;;;;;8.30;5.10;;;;;;;14.66;47.95;94327.59;5013675;28;20203;-64
2021/12/02 10:33:54;;;;;;;8.27;5.43;;;;;;;14.73;48.79;94263.75;5013948;28;20265;-66
2021/12/02 10:36:24;;;;;;;7.63;5.00;;;;;;;14.88;46.08;94331.22;5012110;28;20226;-63
2021/12/02 10:38:50;;;;;;;8.13;5.67;;;;;;;14.93;46.27;94306.72;5039390;22;20655;-61
2021/12/02 10:41:21;;;;;;;8.43;5.50;;;;;;;14.99;46.46;94285.59;5033013;28;20265;-65
2021/12/02 10:44:08;;;;;;;8.73;5.30;;;;;;;14.89;45.83;94300.34;5033466;28;20609;-65
2021/12/02 10:46:52;;;;;;;11.60;4.75;;;;;;;14.85;47.07;94260.69;5033189;28;20256;-64
2021/12/02 10:49:19;;;;;;;8.37;4.90;;;;;;;14.90;46.07;94276.38;5033026;28;20612;-63
2021/12/02 10:51:56;;;;;;;7.40;4.93;;;;;;;14.85;47.06;94227.41;5033137;28;20217;-65
2021/12/02 10:54:25;;;;;;;13.17;5.13;;;;;;;15.07;46.45;94234.34;5032997;28;20173;-64
2021/12/02 10:56:56;;;;;;;9.47;5.90;;;;;;;15.03;46.54;94225.41;5033045;28;20272;-62
2021/12/02 10:59:29;;;;;;;6.57;4.83;;;;;;;14.98;47.86;94194.41;5033225;28;20235;-64
2021/12/02 11:02:16;;;;;;;8.00;4.80;;;;;;;15.01;46.87;94212.00;5033109;28;20206;-62
2021/12/02 11:04:44;;;;;;;7.63;4.60;;;;;;;14.61;46.91;94201.13;5031448;28;20190;-64
2021/12/02 11:07:21;;;;;;;8.67;4.77;;;;;;;14.75;45.37;94238.81;5032601;28;20232;-65
2021/12/02 11:09:48;;;;;;;8.20;4.82;;;;;;;14.88;47.67;94145.19;5032706;28;20170;-64
2021/12/02 11:12:24;;;;;;;9.03;4.80;;;;;;;15.03;48.25;94135.81;5040153;22;20316;-64
2021/12/02 11:15:11;;;;;;;7.67;5.00;;;;;;;15.14;47.33;94171.28;5032258;28;20225;-64
2021/12/02 11:17:48;;;;;;;9.27;5.30;;;;;;;15.23;46.53;94196.84;5032783;28;20580;-64
2021/12/02 11:20:22;;;;;;;8.63;5.88;;;;;;;15.21;46.43;94185.97;5032558;28;20309;-60
2021/12/02 11:22:53;;;;;;;9.83;5.97;;;;;;;15.29;46.84;94170.56;5032631;28;20266;-60
2021/12/02 11:25:19;;;;;;;7.15;5.38;;;;;;;15.31;45.82;94196.81;5032426;28;20209;-61
2021/12/02 11:27:48;;;;;;;7.88;5.78;;;;;;;15.11;44.98;94215.13;5032258;28;20622;-62
2021/12/02 11:30:27;;;;;;;8.50;5.03;;;;;;;14.76;46.34;94153.41;5032483;28;20270;-64
2021/12/02 11:32:57;;;;;;;9.13;6.57;;;;;;;14.80;47.03;94145.25;5031397;28;20240;-64
2021/12/02 11:35:34;;;;;;;9.43;5.00;;;;;;;14.78;46.93;94142.06;5032083;28;20221;-63
2021/12/02 11:38:17;;;;;;;10.50;6.53;;;;;;;14.79;47.89;94107.81;5032451;28;20230;-63
2021/12/02 11:40:46;;;;;;;10.53;6.03;;;;;;;14.81;46.61;94141.69;5031924;28;20644;-62
2021/12/02 11:43:14;;;;;;;9.20;6.73;;;;;;;14.77;47.05;94129.41;5031953;28;20190;-63
2021/12/02 11:45:46;;;;;;;10.65;6.25;;;;;;;14.59;47.66;94098.16;5030567;28;20182;-63
2021/12/02 11:48:13;;;;;;;8.33;6.17;;;;;;;14.45;46.14;94132.91;5032260;28;20167;-64
2021/12/02 11:50:40;;;;;;;9.03;5.27;;;;;;;14.58;48.86;94047.97;5030661;28;20205;-65
2021/12/02 11:53:05;;;;;;;10.18;5.15;;;;;;;14.66;47.11;94110.13;5031923;28;20606;-64
2021/12/02 11:55:34;;;;;;;8.98;4.47;;;;;;;14.48;46.75;94117.25;5030511;28;20607;-64